Station: Strahan  

  Atmospheric Gas Attenuation - ITU Rec 676-11   ----------------- dB/100km -----------------
Date Time Temp RH % AH g/m3 Dew Point Wind Direction Speed kph Gust kph Barometer mB Rainfall Since 9am 24GHz 47GHz 76GHz 122GHz 134GHz 241GHz
08/05 12:30 12.7 85 9.46 10.2 26 33 1019.1 0.2 21.5 27.9 44.2 116.1 112.1 386.1
08/05 12:20 12.8 90 10.08 11.2 22 26 1018.9 0.2 22.8 28.9 46.8 123.0 120.6 415.9
08/05 12:10 11.6 87 9.04 9.5 26 32 1019 0.2 20.6 27.5 43.0 113.0 107.8 371.0
08/05 12:00 12.4 88 9.62 10.5 22 35 1019 0.2 21.8 28.2 45.0 118.3 114.7 395.3
08/05 11:50 11.8 88 9.26 9.9 30 35 1019 0.2 21.1 27.8 43.8 115.2 110.6 380.7
08/05 11:40 11.9 92 9.74 10.6 24 28 1018.8 0.2 22.1 28.6 45.8 120.5 117.2 403.8
08/05 11:30 11.4 92 9.44 10.1 24 33 1018.8 0.2 21.5 28.2 44.8 117.8 113.7 391.5
08/05 11:20 11.3 90 9.18 9.7 24 28 1018.6 0.2 21.0 27.8 43.8 114.9 110.1 379.1
08/05 11:10 11.8 83 8.74 9 33 44 1018.4 0 20.0 26.9 41.6 109.3 103.3 355.4
08/05 11:00 13.6 77 9.06 9.6 28 39 1018.2 0 20.6 26.9 42.0 110.2 105.2 362.3
08/05 10:50 12.6 81 8.96 9.4 26 30 1018.1 0 20.4 27.0 42.1 110.5 105.2 362.2
08/05 10:40 13.1 82 9.36 10.1 26 32 1018 0 21.2 27.5 43.5 114.3 110.0 378.9
08/05 10:30 12 85 9.06 9.6 19 28 1018 0 20.7 27.4 42.8 112.5 107.4 369.7
08/05 10:20 11.7 85 8.89 9.3 19 20 1017.9 0 20.3 27.2 42.3 111.0 105.5 362.9
08/05 10:10 12.1 83 8.9 9.3 22 28 1017.7 0 20.3 27.1 42.1 110.5 105.1 361.5
08/05 10:00 11.6 84 8.73 9 22 33 1017.8 0 20.0 26.9 41.7 109.4 103.4 355.7
08/05 09:50 11.2 87 8.82 9.1 20 26 1017.7 0 20.2 27.2 42.3 110.9 105.2 361.8
08/05 09:40 11.3 87 8.88 9.2 33 39 1017.7 0 20.3 27.3 42.5 111.4 105.9 364.3
08/05 09:30 11.4 88 9.03 9.5 20 32 1017.6 0 20.6 27.5 43.0 113.0 107.8 371.0
08/05 09:20 10.9 89 8.85 9.2 24 28 1017.5 0 20.3 27.3 42.5 111.7 106.0 364.6
08/05 09:10 10.9 88 8.75 9 26 32 1017.5 0 20.0 27.2 42.1 110.5 104.6 359.8
08/05 09:00 11.1 88 8.87 9.2 24 35 1017.3 0 20.3 27.3 42.5 111.6 106.0 364.6
08/05 08:50 10.9 90 8.95 9.3 22 26 1017.1 13.4 20.5 27.5 42.9 112.7 107.4 369.4
08/05 08:40 10.7 90 8.84 9.1 24 28 1016.9 13.4 20.3 27.4 42.6 111.8 106.1 364.9
08/05 08:30 10.5 89 8.63 8.8 17 26 1017 13.2 19.8 27.1 41.8 109.7 103.4 355.6
08/05 08:20 10.3 90 8.62 8.7 20 24 1016.9 13.2 19.8 27.1 41.9 109.9 103.6 356.0
08/05 08:10 10.4 91 8.77 9 19 24 1016.7 13.2 20.1 27.3 42.4 111.4 105.5 362.8
08/05 08:00 10 91 8.55 8.6 22 32 1016.6 13.2 19.7 27.1 41.7 109.5 103.0 353.9
08/05 07:50 9.8 92 8.54 8.6 22 24 1016.4 13.2 19.7 27.1 41.8 109.6 103.1 354.3
08/05 07:40 9.9 91 8.5 8.5 24 28 1016.5 13.2 19.6 27.0 41.5 109.0 102.4 351.9
08/05 07:30 9.7 91 8.39 8.3 20 28 1016.5 13.2 19.3 26.9 41.2 108.1 101.1 347.4
08/05 07:20 9.8 91 8.45 8.4 26 30 1016.2 13.2 19.5 27.0 41.4 108.6 101.8 349.8
08/05 07:10 9.9 93 8.69 8.8 28 32 1016.1 13.2 20.0 27.3 42.3 111.1 105.0 361.1
08/05 07:00 9.9 93 8.69 8.8 24 33 1016.1 13.2 20.0 27.3 42.3 111.1 105.0 361.1
08/05 06:50 9.7 92 8.48 8.5 24 32 1016 13 19.5 27.0 41.5 109.0 102.3 351.7
08/05 06:40 9.4 92 8.32 8.2 20 24 1015.8 13 19.2 26.8 41.0 107.6 100.5 345.2
08/05 06:30 9.5 92 8.38 8.3 22 32 1015.9 13 19.3 26.9 41.2 108.2 101.2 347.7
08/05 06:20 9.6 91 8.34 8.2 30 33 1016 13 19.2 26.8 41.0 107.6 100.5 345.3
08/05 06:10 10.3 87 8.33 8.2 30 35 1015.8 12.8 19.2 26.6 40.6 106.5 99.5 341.7
08/05 06:00 10.3 84 8.05 7.7 24 33 1015.6 12.6 18.6 26.1 39.4 103.4 95.6 328.2
08/05 05:50 10.2 84 8 7.6 26 30 1015.5 12.6 18.5 26.0 39.3 102.9 95.0 326.2
08/05 05:40 10.2 85 8.09 7.8 24 30 1015.4 12.6 18.7 26.2 39.6 103.9 96.3 330.5
08/05 05:30 10.8 84 8.3 8.2 28 41 1015.3 12.6 19.1 26.4 40.2 105.4 98.4 337.9
08/05 05:20 10.7 81 7.96 7.6 24 30 1014.9 12.6 18.4 25.8 38.8 101.8 93.8 322.1
08/05 05:10 10.7 81 7.96 7.6 28 35 1014.7 12.6 18.4 25.8 38.8 101.7 93.8 322.1
08/05 05:00 10.7 84 8.25 8.1 24 32 1014.7 12.6 19.0 26.3 40.0 104.9 97.8 335.8
08/05 04:50 10.5 85 8.25 8.1 24 30 1014.6 12.6 19.0 26.3 40.1 105.2 98.0 336.6
08/05 04:40 10.2 86 8.19 8 24 32 1014.3 12.6 18.9 26.3 40.0 104.9 97.5 335.0
08/05 04:30 10.1 87 8.23 8 24 33 1014.3 12.6 19.0 26.4 40.2 105.5 98.2 337.3
08/05 04:20 10 89 8.36 8.3 19 22 1014.1 12.6 19.3 26.7 40.8 107.0 100.1 344.0
08/05 04:10 9.9 91 8.5 8.5 24 30 1014 12.6 19.6 26.9 41.4 108.7 102.2 351.2
08/05 04:00 9.9 93 8.69 8.8 20 33 1014 12.6 20.0 27.2 42.2 110.9 104.8 360.5
08/05 03:50 9.8 94 8.72 8.9 20 24 1013.9 12.6 20.0 27.3 42.4 111.4 105.4 362.4
08/05 03:40 9.8 93 8.63 8.7 26 30 1014 12.6 19.8 27.2 42.0 110.4 104.1 358.0
08/05 03:30 10.4 92 8.87 9.2 33 50 1014.1 12.6 20.3 27.4 42.7 112.2 106.7 366.9
08/05 03:20 10.5 91 8.83 9.1 28 46 1013.8 12 20.2 27.3 42.5 111.6 105.9 364.4
08/05 03:10 10.5 90 8.73 8.9 13 13 1013.5 11.8 20.0 27.1 42.1 110.4 104.5 359.5
08/05 03:00 10.6 88 8.59 8.7 26 37 1013.6 11.8 19.7 26.8 41.4 108.7 102.5 352.3
08/05 02:50 10.5 90 8.73 8.9 24 30 1013.4 11.8 20.0 27.1 42.1 110.4 104.5 359.4
08/05 02:40 10.5 91 8.83 9.1 33 43 1013.4 11.8 20.2 27.3 42.5 111.6 105.9 364.3
08/05 02:30 10.6 89 8.69 8.9 26 39 1013.3 11 19.9 27.0 41.8 109.8 103.8 357.0
08/05 02:20 10.7 88 8.65 8.8 33 39 1013.2 11 19.8 26.9 41.6 109.2 103.1 354.6
08/05 02:10 10.8 89 8.8 9.1 30 35 1013.2 11 20.2 27.1 42.2 110.8 105.1 361.4
08/05 02:00 10.9 87 8.66 8.8 32 43 1013.1 11 19.9 26.9 41.5 109.0 103.0 354.1
08/05 01:50 11.5 78 8.06 7.8 30 37 1012.9 11 18.5 25.7 38.7 101.6 94.1 323.0
08/05 01:40 12 74 7.89 7.5 37 48 1012.7 11 18.2 25.2 37.8 99.1 91.2 313.0
08/05 01:30 11.7 75 7.85 7.4 35 52 1012.7 11 18.1 25.3 37.8 99.1 91.0 312.3
08/05 01:20 11.7 73 7.64 7 39 46 1012.5 11 17.6 24.9 36.9 96.8 88.2 302.6
08/05 01:10 11.3 81 8.26 8.2 28 37 1012.5 11 19.0 26.0 39.6 104.0 97.0 333.1
08/05 01:00 11.7 81 8.47 8.6 28 44 1012.4 11 19.4 26.3 40.3 105.8 99.3 341.3
08/05 00:50 11.6 84 8.73 9 24 28 1012 11 20.0 26.7 41.4 108.7 102.9 354.0
08/05 00:40 11.1 81 8.16 8 20 26 1012 11 18.8 25.9 39.3 103.1 95.8 329.1
08/05 00:30 11.4 77 7.9 7.5 32 46 1011.8 11 18.2 25.4 38.1 99.9 92.0 315.6
08/05 00:20 11.3 81 8.26 8.2 33 39 1011.7 11 19.0 26.0 39.6 103.9 96.9 332.9
08/05 00:10 11.5 84 8.68 8.9 39 48 1011.5 11 19.9 26.6 41.2 108.3 102.3 351.9
08/05 00:00 11.2 90 9.12 9.6 33 52 1011.6 11 20.8 27.5 43.2 113.6 108.8 374.6
07/05 23:50 11.8 90 9.47 10.2 35 44 1011.5 11 21.6 27.9 44.4 116.7 112.8 388.7
07/05 23:40 11.8 89 9.37 10 30 41 1011.4 11 21.3 27.7 44.0 115.5 111.4 383.8
07/05 23:30 11.5 90 9.3 9.9 33 54 1011.5 11 21.2 27.7 43.8 115.2 110.9 381.9
07/05 23:20 11.7 92 9.62 10.4 35 44 1011.4 11 21.9 28.2 45.1 118.5 115.1 396.5
07/05 23:10 11.6 93 9.67 10.5 32 41 1011.3 11 22.0 28.3 45.3 119.3 115.9 399.5
07/05 23:00 11.5 90 9.3 9.9 43 72 1011.3 11 21.2 27.7 43.8 115.2 110.9 381.8
07/05 22:50 12.3 89 9.67 10.5 39 52 1011 10.4 22.0 28.0 44.9 118.1 114.8 395.8
07/05 22:40 12.3 91 9.88 10.9 44 50 1011 10.4 22.4 28.4 45.8 120.5 117.8 406.1
07/05 22:30 12.4 92 10.05 11.1 35 57 1011.1 10.4 22.8 28.7 46.5 122.4 120.0 414.0
07/05 22:20 12.1 91 9.76 10.7 39 50 1010.9 10.4 22.2 28.3 45.4 119.5 116.4 401.2
07/05 22:10 12.4 93 10.16 11.3 43 48 1010.9 10.4 23.0 28.9 47.0 123.6 121.6 419.4
07/05 22:00 12.5 93 10.23 11.4 33 57 1011 10.4 23.2 29.0 47.2 124.3 122.4 422.4
07/05 21:50 12.4 94 10.27 11.5 43 50 1010.9 10.4 23.3 29.0 47.4 124.9 123.2 424.9
07/05 21:40 12.3 95 10.32 11.5 37 46 1011 10.4 23.4 29.2 47.7 125.6 124.0 428.0
07/05 21:30 12.3 95 10.32 11.5 35 52 1011.2 10.4 23.4 29.2 47.7 125.6 124.1 428.0
07/05 21:20 12.2 95 10.25 11.4 37 52 1011.1 10.2 23.2 29.1 47.5 125.0 123.2 425.1
07/05 21:10 12.2 95 10.25 11.4 41 54 1011.1 9.2 23.2 29.1 47.5 125.0 123.2 425.1
07/05 21:00 12.2 94 10.14 11.3 33 46 1011.2 9 23.0 28.9 47.0 123.7 121.6 419.6
07/05 20:50 12.3 93 10.1 11.2 30 43 1011.2 8.6 22.9 28.8 46.8 123.1 120.9 417.1
07/05 20:40 12.3 93 10.1 11.2 41 48 1011.2 8.4 22.9 28.8 46.8 123.1 120.9 417.1
07/05 20:30 12.3 93 10.1 11.2 33 50 1011.3 8 22.9 28.8 46.8 123.1 120.9 417.1
07/05 20:20 12.1 94 10.08 11.2 35 43 1011.4 8 22.9 28.8 46.8 123.2 121.0 417.2
07/05 20:10 12.2 94 10.14 11.3 39 48 1011.5 8 23.0 28.9 47.0 123.8 121.7 419.7
07/05 20:00 12.1 94 10.08 11.2 35 56 1011.7 8 22.9 28.8 46.8 123.2 121.0 417.3

Last Refresh: 08-May-2026 12:08:29

Bureau of Meteorology